This is the latest recevied weather packets stored in our database for station/object KB2AHZ. If no packets are shown the sender has not sent any weather packets the latest 10 day(s).
| Time | Temp. | Humidity | Pressure | Rain* | Wind** | Luminosity | Snow |
|---|---|---|---|---|---|---|---|
| 1777573050 | 21.67° C | 54% | 1009.6 hPa | 0 mm | - | 904 W/m² | - |
| 1777572747 | 21.11° C | 51% | 1009.3 hPa | 0 mm | - | 908 W/m² | - |
| 1777572441 | 21.11° C | 51% | 1009.5 hPa | 0 mm | - | 901 W/m² | - |
| 1777572138 | 21.11° C | 52% | 1009.5 hPa | 0 mm | - | 908 W/m² | - |
| 1777571832 | 21.11° C | 58% | 1009.8 hPa | 0 mm | - | 910 W/m² | - |
| 1777571524 | 20.56° C | 55% | 1009.8 hPa | 0 mm | - | 916 W/m² | - |
| 1777571221 | 20.56° C | 57% | 1009.8 hPa | 0 mm | - | 916 W/m² | - |
| 1777570916 | 21.11° C | 54% | 1009.8 hPa | 0 mm | - | 908 W/m² | - |
| 1777570612 | 20.56° C | 58% | 1010.1 hPa | 0 mm | - | 925 W/m² | - |
| 1777570309 | 21.11° C | 59% | 1010.1 hPa | 0 mm | - | 929 W/m² | - |
| 1777570004 | 20.56° C | 59% | 1010.1 hPa | 0 mm | - | 923 W/m² | - |
| 1777569700 | 20° C | 62% | 1010.2 hPa | 0 mm | - | 867 W/m² | - |
| 1777569396 | 20° C | 59% | 1010.4 hPa | 0 mm | - | 819 W/m² | - |
| 1777569088 | 20° C | 57% | 1010.3 hPa | 0 mm | - | 798 W/m² | - |
| 1777568784 | 20.56° C | 60% | 1010.3 hPa | 0 mm | - | 767 W/m² | - |
| 1777568482 | 20° C | 62% | 1010.5 hPa | 0 mm | - | 749 W/m² | - |
| 1777568178 | 20° C | 60% | 1010.5 hPa | 0 mm | - | 748 W/m² | - |
| 1777567875 | 20.56° C | 66% | 1010.4 hPa | 0 mm | - | 746 W/m² | - |
| 1777567571 | 20° C | 60% | 1010.4 hPa | 0 mm | - | 750 W/m² | - |
| 1777567269 | 20.56° C | 62% | 1010.6 hPa | 0 mm | - | 756 W/m² | - |
| 1777566967 | 20° C | 61% | 1010.4 hPa | 0 mm | - | 765 W/m² | - |
| 1777566664 | 19.44° C | 64% | 1010.6 hPa | 0 mm | - | 780 W/m² | - |
| 1777566362 | 19.44° C | 74% | 1010.5 hPa | 0 mm | - | 836 W/m² | - |
| 1777566059 | 19.44° C | 71% | 1010.5 hPa | 0 mm | - | 524 W/m² | - |
| 1777565754 | 17.78° C | 85% | 1010.6 hPa | 0 mm | - | 877 W/m² | - |
* Rain latest hour (hover to see other rain measurements)
** Current wind speed in m/s (hover to see current wind gust speed)